createdAt,value
2019-01-26T00:01:04.714Z,99296.49
2019-01-26T00:03:33.082Z,99302.77
2019-01-26T00:06:01.369Z,99294.42
2019-01-26T00:08:29.769Z,99299.41
2019-01-26T00:10:58.144Z,99301.95
2019-01-26T00:13:26.514Z,99297.30
2019-01-26T00:15:54.834Z,99295.23
2019-01-26T00:18:23.169Z,99298.17
2019-01-26T00:20:51.452Z,99301.56
2019-01-26T00:23:19.838Z,99298.92
2019-01-26T00:25:48.199Z,99298.17
2019-01-26T00:28:25.981Z,99303.14
2019-01-26T00:30:54.322Z,99309.88
2019-01-26T00:33:22.609Z,99301.79
2019-01-26T00:35:50.994Z,99306.38
2019-01-26T00:38:19.284Z,99296.64
2019-01-26T00:40:47.560Z,99302.13
2019-01-26T00:43:15.954Z,99297.11
2019-01-26T00:45:44.248Z,99302.53
2019-01-26T00:48:12.539Z,99308.78
2019-01-26T00:50:40.891Z,99309.64
2019-01-26T00:53:09.173Z,99312.97
2019-01-26T00:55:37.466Z,99308.41
2019-01-26T00:58:05.875Z,99312.25
2019-01-26T01:00:34.167Z,99314.71
2019-01-26T01:03:02.530Z,99313.88
2019-01-26T01:05:30.925Z,99317.59
2019-01-26T01:07:59.274Z,99322.28
2019-01-26T01:10:27.571Z,99321.02
2019-01-26T01:12:55.881Z,99323.47
2019-01-26T01:15:24.173Z,99326.06
2019-01-26T01:17:52.456Z,99325.17
2019-01-26T01:20:20.859Z,99319.86
2019-01-26T01:22:49.204Z,99316.16
2019-01-26T01:25:17.508Z,99323.73
2019-01-26T01:27:45.839Z,99318.56
2019-01-26T01:30:20.144Z,99321.45
2019-01-26T01:32:48.491Z,99323.16
2019-01-26T01:35:17.278Z,99313.44
2019-01-26T01:37:45.573Z,99314.23
2019-01-26T01:40:15.720Z,99308.64
2019-01-26T01:42:44.101Z,99311.21
2019-01-26T01:45:15.695Z,99314.16
2019-01-26T01:47:44.122Z,99304.93
2019-01-26T01:50:12.520Z,99309.59
2019-01-26T01:52:40.951Z,99307.83
2019-01-26T01:55:10.363Z,99304.05
2019-01-26T01:57:38.678Z,99292.64
2019-01-26T02:00:10.480Z,99300.66
2019-01-26T02:02:38.829Z,99301.08
2019-01-26T02:05:08.020Z,99309.56
2019-01-26T02:07:36.301Z,99301.59
2019-01-26T02:10:07.173Z,99310.38
2019-01-26T02:12:35.469Z,99309.72
2019-01-26T02:15:04.508Z,99306.83
2019-01-26T02:17:32.835Z,99315.20
2019-01-26T02:20:01.116Z,99311.07
2019-01-26T02:22:29.400Z,99314.48
2019-01-26T02:24:57.723Z,99311.87
2019-01-26T02:27:26.002Z,99309.34
2019-01-26T02:29:54.289Z,99316.58
2019-01-26T02:32:22.611Z,99319.94
2019-01-26T02:34:50.884Z,99313.98
2019-01-26T02:37:19.313Z,99318.17
2019-01-26T02:39:47.633Z,99326.22
2019-01-26T02:42:15.983Z,99319.91
2019-01-26T02:44:44.333Z,99320.81
2019-01-26T02:47:12.646Z,99322.87
2019-01-26T02:49:40.922Z,99335.06
2019-01-26T02:52:09.338Z,99327.54
2019-01-26T02:54:37.717Z,99331.75
2019-01-26T02:57:06.017Z,99334.72
2019-01-26T02:59:34.304Z,99334.31
2019-01-26T03:02:02.608Z,99333.04
2019-01-26T03:04:30.894Z,99331.36
2019-01-26T03:06:59.249Z,99330.45
2019-01-26T03:09:27.565Z,99341.55
2019-01-26T03:11:55.984Z,99342.09
2019-01-26T03:14:24.250Z,99343.09
2019-01-26T03:16:52.568Z,99349.45
2019-01-26T03:19:20.920Z,99350.61
2019-01-26T03:21:49.232Z,99349.40
2019-01-26T03:24:17.547Z,99357.84
2019-01-26T03:26:45.823Z,99355.70
2019-01-26T03:29:14.101Z,99358.57
2019-01-26T03:31:42.448Z,99357.77
2019-01-26T03:34:10.786Z,99363.69
2019-01-26T03:36:39.092Z,99365.73
2019-01-26T03:39:08.137Z,99366.27
2019-01-26T03:41:36.421Z,99366.69
2019-01-26T03:44:04.676Z,99373.84
2019-01-26T03:46:33.060Z,99379.39
2019-01-26T03:49:01.410Z,99379.83
2019-01-26T03:51:29.761Z,99390.38
2019-01-26T03:53:58.073Z,99392.15
2019-01-26T03:56:26.331Z,99388.00
2019-01-26T03:58:54.610Z,99393.45
2019-01-26T04:01:22.931Z,99390.13
2019-01-26T04:03:51.215Z,99391.84
2019-01-26T04:06:19.489Z,99391.87
2019-01-26T04:08:47.821Z,99392.23
2019-01-26T04:11:16.094Z,99388.47
2019-01-26T04:13:44.366Z,99396.08
2019-01-26T04:16:12.708Z,99392.30
2019-01-26T04:18:40.976Z,99396.93
2019-01-26T04:21:09.279Z,99401.70
2019-01-26T04:23:37.592Z,99405.46
2019-01-26T04:26:05.879Z,99399.61
2019-01-26T04:28:34.184Z,99406.78
2019-01-26T04:31:02.474Z,99409.28
2019-01-26T04:33:30.772Z,99410.07
2019-01-26T04:35:59.068Z,99414.76
2019-01-26T04:38:27.390Z,99413.45
2019-01-26T04:40:55.660Z,99410.07
2019-01-26T04:43:24.125Z,99409.67
2019-01-26T04:45:52.445Z,99420.67
2019-01-26T04:48:20.814Z,99415.98
2019-01-26T04:50:49.160Z,99429.91
2019-01-26T04:53:17.482Z,99429.06
2019-01-26T04:55:45.868Z,99430.71
2019-01-26T04:58:14.154Z,99429.06
2019-01-26T05:00:42.494Z,99429.53
2019-01-26T05:03:10.834Z,99432.46
2019-01-26T05:05:39.113Z,99439.57
2019-01-26T05:08:07.430Z,99442.98
2019-01-26T05:10:35.698Z,99439.59
2019-01-26T05:13:04.014Z,99436.78
2019-01-26T05:15:32.332Z,99439.33
2019-01-26T05:18:00.598Z,99445.20
2019-01-26T05:20:28.882Z,99451.95
2019-01-26T05:22:57.216Z,99449.78
2019-01-26T05:25:25.499Z,99463.34
2019-01-26T05:27:54.155Z,99452.73
2019-01-26T05:30:27.155Z,99459.50
2019-01-26T05:32:55.479Z,99453.66
2019-01-26T05:35:23.750Z,99463.73
2019-01-26T05:37:52.078Z,99467.56
2019-01-26T05:40:20.434Z,99470.95
2019-01-26T05:42:48.705Z,99470.57
2019-01-26T05:45:19.628Z,99476.02
2019-01-26T05:47:49.626Z,99470.97
2019-01-26T05:50:25.325Z,99474.29
2019-01-26T05:52:53.617Z,99487.37
2019-01-26T05:55:21.897Z,99492.45
2019-01-26T05:57:50.212Z,99497.48
2019-01-26T06:00:28.611Z,99500.52
2019-01-26T06:02:56.923Z,99492.89
2019-01-26T06:05:25.201Z,99496.30
2019-01-26T06:07:53.474Z,99498.41
2019-01-26T06:10:21.801Z,99487.45
2019-01-26T06:12:50.059Z,99501.73
2019-01-26T06:15:18.347Z,99502.96
2019-01-26T06:17:46.652Z,99508.47
2019-01-26T06:20:16.394Z,99507.25
2019-01-26T06:22:44.648Z,99505.52
2019-01-26T06:25:21.076Z,99513.92
2019-01-26T06:27:49.637Z,99519.36
2019-01-26T06:30:22.772Z,99518.15
2019-01-26T06:32:52.061Z,99519.81
2019-01-26T06:35:20.508Z,99522.80
2019-01-26T06:37:48.978Z,99527.83
2019-01-26T06:40:18.720Z,99528.26
2019-01-26T06:42:47.011Z,99529.09
2019-01-26T06:45:19.786Z,99530.29
2019-01-26T06:47:48.103Z,99535.72
2019-01-26T06:50:23.309Z,99537.08
2019-01-26T06:52:51.688Z,99542.98
2019-01-26T06:55:23.111Z,99543.84
2019-01-26T06:57:51.386Z,99543.43
2019-01-26T07:00:22.408Z,99550.11
2019-01-26T07:02:50.692Z,99557.28
2019-01-26T07:05:32.599Z,99549.16
2019-01-26T07:08:01.011Z,99544.97
2019-01-26T07:10:29.284Z,99552.58
2019-01-26T07:12:57.597Z,99548.75
2019-01-26T07:15:25.981Z,99549.26
2019-01-26T07:17:54.250Z,99546.22
2019-01-26T07:20:22.585Z,99554.67
2019-01-26T07:22:50.958Z,99561.28
2019-01-26T07:25:19.503Z,99560.81
2019-01-26T07:27:47.822Z,99552.67
2019-01-26T07:30:19.421Z,99557.03
2019-01-26T07:32:47.705Z,99556.59
2019-01-26T07:35:16.022Z,99558.30
2019-01-26T07:37:44.308Z,99559.48
2019-01-26T07:40:16.077Z,99557.80
2019-01-26T07:42:44.407Z,99555.15
2019-01-26T07:45:13.650Z,99551.78
2019-01-26T07:47:41.940Z,99561.46
2019-01-26T07:50:16.444Z,99562.86
2019-01-26T07:52:44.715Z,99560.25
2019-01-26T07:55:14.631Z,99570.05
2019-01-26T07:57:42.956Z,99553.60
2019-01-26T08:00:17.440Z,99560.35
2019-01-26T08:02:45.712Z,99560.31
2019-01-26T08:05:14.027Z,99569.18
2019-01-26T08:07:42.323Z,99571.67
2019-01-26T08:10:19.422Z,99570.37
2019-01-26T08:12:47.752Z,99573.32
2019-01-26T08:15:18.876Z,99573.77
2019-01-26T08:17:47.199Z,99571.97
2019-01-26T08:20:20.261Z,99578.50
2019-01-26T08:22:48.548Z,99577.08
2019-01-26T08:25:17.410Z,99583.70
2019-01-26T08:27:45.710Z,99581.56
2019-01-26T08:30:17.194Z,99579.03
2019-01-26T08:32:45.539Z,99585.30
2019-01-26T08:35:13.891Z,99589.41
2019-01-26T08:37:42.183Z,99599.58
2019-01-26T08:40:13.136Z,99607.99
2019-01-26T08:42:41.477Z,99603.50
2019-01-26T08:45:11.925Z,99611.06
2019-01-26T08:47:40.301Z,99615.67
2019-01-26T08:50:19.956Z,99612.45
2019-01-26T08:52:48.271Z,99603.02
2019-01-26T08:55:18.367Z,99598.13
2019-01-26T08:57:46.570Z,99608.84
2019-01-26T09:00:27.405Z,99603.81
2019-01-26T09:02:57.311Z,99615.41
2019-01-26T09:05:27.259Z,99617.59
2019-01-26T09:07:55.589Z,99617.98
2019-01-26T09:10:23.873Z,99624.83
2019-01-26T09:12:52.169Z,99620.78
2019-01-26T09:15:21.152Z,99615.78
2019-01-26T09:17:49.454Z,99626.98
2019-01-26T09:20:18.035Z,99625.98
2019-01-26T09:22:46.348Z,99633.59
2019-01-26T09:25:14.710Z,99634.31
2019-01-26T09:27:43.089Z,99640.31
2019-01-26T09:30:16.621Z,99631.27
2019-01-26T09:32:44.913Z,99638.80
2019-01-26T09:35:13.370Z,99637.08
2019-01-26T09:37:41.690Z,99640.13
2019-01-26T09:40:21.001Z,99640.52
2019-01-26T09:42:49.313Z,99644.44
2019-01-26T09:45:18.934Z,99633.78
2019-01-26T09:47:47.496Z,99636.95
2019-01-26T09:50:15.951Z,99638.43
2019-01-26T09:52:44.250Z,99641.11
2019-01-26T09:55:14.872Z,99640.76
2019-01-26T09:57:43.180Z,99640.98
2019-01-26T10:00:19.958Z,99641.16
2019-01-26T10:02:49.272Z,99634.36
2019-01-26T10:05:17.686Z,99641.70
2019-01-26T10:07:45.969Z,99638.64
2019-01-26T10:10:16.695Z,99631.91
2019-01-26T10:12:45.893Z,99631.95
2019-01-26T10:15:23.657Z,99643.55
2019-01-26T10:17:52.091Z,99641.78
2019-01-26T10:20:23.375Z,99633.88
2019-01-26T10:22:51.679Z,99635.29
2019-01-26T10:25:20.195Z,99638.42
2019-01-26T10:27:48.489Z,99632.69
2019-01-26T10:30:21.186Z,99622.58
2019-01-26T10:32:49.474Z,99619.73
2019-01-26T10:35:17.742Z,99619.29
2019-01-26T10:37:46.278Z,99624.89
2019-01-26T10:40:22.406Z,99619.70
2019-01-26T10:42:50.710Z,99617.98
2019-01-26T10:45:18.990Z,99612.47
2019-01-26T10:47:47.319Z,99605.23
2019-01-26T10:50:15.630Z,99607.67
2019-01-26T10:52:43.903Z,99599.82
2019-01-26T10:55:12.193Z,99601.66
2019-01-26T10:57:40.495Z,99606.94
2019-01-26T11:00:12.027Z,99603.76
2019-01-26T11:02:40.512Z,99604.37
2019-01-26T11:05:09.190Z,99598.24
2019-01-26T11:07:37.467Z,99601.14
2019-01-26T11:10:09.032Z,99599.22
2019-01-26T11:12:37.340Z,99601.06
2019-01-26T11:15:08.866Z,99601.95
2019-01-26T11:17:37.146Z,99599.19
2019-01-26T11:20:11.186Z,99600.59
2019-01-26T11:22:39.475Z,99604.92
2019-01-26T11:25:10.376Z,99610.80
2019-01-26T11:27:38.683Z,99598.08
2019-01-26T11:30:18.304Z,99600.79
2019-01-26T11:32:46.622Z,99602.92
2019-01-26T11:35:19.626Z,99596.95
2019-01-26T11:37:47.919Z,99602.39
2019-01-26T11:40:19.146Z,99602.41
2019-01-26T11:42:47.403Z,99606.73
2019-01-26T11:45:27.697Z,99602.25
2019-01-26T11:47:57.605Z,99598.63
2019-01-26T11:50:36.429Z,99593.60
2019-01-26T11:53:04.791Z,99598.03
2019-01-26T11:55:34.806Z,99587.69
2019-01-26T11:58:03.155Z,99593.95
2019-01-26T12:00:45.217Z,99593.15
2019-01-26T12:03:17.837Z,99589.52
2019-01-26T12:05:47.749Z,99585.77
2019-01-26T12:08:16.041Z,99588.87
2019-01-26T12:10:44.344Z,99582.05
2019-01-26T12:13:12.620Z,99578.75
2019-01-26T12:15:40.896Z,99578.75
2019-01-26T12:18:09.204Z,99583.44
2019-01-26T12:20:37.474Z,99580.61
2019-01-26T12:23:05.810Z,99574.97
2019-01-26T12:25:34.131Z,99569.42
2019-01-26T12:28:02.401Z,99578.89
2019-01-26T12:30:30.689Z,99576.28
2019-01-26T12:32:59.000Z,99575.27
2019-01-26T12:35:27.349Z,99574.72
2019-01-26T12:37:55.625Z,99577.08
2019-01-26T12:40:23.928Z,99575.11
2019-01-26T12:42:52.216Z,99575.11
2019-01-26T12:45:21.538Z,99573.55
2019-01-26T12:47:49.847Z,99572.76
2019-01-26T12:50:18.479Z,99566.62
2019-01-26T12:52:46.752Z,99573.09
2019-01-26T12:55:16.798Z,99565.38
2019-01-26T12:57:46.540Z,99560.51
2019-01-26T13:00:27.548Z,99560.51
2019-01-26T13:02:55.840Z,99562.84
2019-01-26T13:05:24.106Z,99554.00
2019-01-26T13:07:52.417Z,99556.37
2019-01-26T13:10:39.199Z,99548.61
2019-01-26T13:13:07.528Z,99548.61
2019-01-26T13:15:36.076Z,99555.69
2019-01-26T13:18:04.439Z,99550.69
2019-01-26T13:20:32.823Z,99549.27
2019-01-26T13:23:01.169Z,99553.39
2019-01-26T13:25:29.456Z,99559.75
2019-01-26T13:27:57.901Z,99557.48
2019-01-26T13:30:26.236Z,99560.27
2019-01-26T13:32:54.534Z,99559.00
2019-01-26T13:35:23.770Z,99568.45
2019-01-26T13:37:52.184Z,99565.77
2019-01-26T13:40:26.447Z,99566.69
2019-01-26T13:42:54.847Z,99563.73
2019-01-26T13:45:23.195Z,99558.48
2019-01-26T13:47:51.490Z,99558.48
2019-01-26T13:50:19.894Z,99562.88
2019-01-26T13:52:48.176Z,99574.34
2019-01-26T13:55:21.455Z,99569.11
2019-01-26T13:57:49.794Z,99568.44
2019-01-26T14:00:32.522Z,99575.66
2019-01-26T14:03:00.952Z,99571.27
2019-01-26T14:05:29.328Z,99575.75
2019-01-26T14:07:57.627Z,99582.03
2019-01-26T14:10:26.204Z,99578.53
2019-01-26T14:12:54.491Z,99584.48
2019-01-26T14:15:23.113Z,99568.16
2019-01-26T14:17:51.491Z,99578.48
2019-01-26T14:20:25.682Z,99578.28
2019-01-26T14:22:53.955Z,99585.23
2019-01-26T14:25:22.275Z,99569.23
2019-01-26T14:27:50.634Z,99573.78
2019-01-26T14:30:34.259Z,99562.91
2019-01-26T14:33:02.654Z,99565.39
2019-01-26T14:35:30.929Z,99567.73
2019-01-26T14:37:59.246Z,99571.80
2019-01-26T14:40:27.527Z,99570.98
2019-01-26T14:42:55.809Z,99554.94
2019-01-26T14:45:24.150Z,99566.56
2019-01-26T14:47:54.659Z,99562.69
2019-01-26T14:50:24.330Z,99566.88
2019-01-26T14:52:52.738Z,99563.55
2019-01-26T14:55:23.689Z,99573.36
2019-01-26T14:57:51.966Z,99571.33
2019-01-26T15:00:28.998Z,99562.55
2019-01-26T15:02:57.319Z,99560.08
2019-01-26T15:05:25.739Z,99555.91
2019-01-26T15:07:54.119Z,99565.78
2019-01-26T15:10:22.397Z,99576.77
2019-01-26T15:12:50.798Z,99571.83
2019-01-26T15:15:20.749Z,99565.90
2019-01-26T15:17:49.123Z,99557.95
2019-01-26T15:20:20.653Z,99561.88
2019-01-26T15:22:48.982Z,99568.67
2019-01-26T15:25:17.258Z,99558.56
2019-01-26T15:27:45.531Z,99574.77
2019-01-26T15:30:19.557Z,99579.09
2019-01-26T15:32:47.840Z,99578.27
2019-01-26T15:35:16.105Z,99579.17
2019-01-26T15:37:44.551Z,99576.28
2019-01-26T15:40:13.465Z,99571.20
2019-01-26T15:42:41.832Z,99580.58
2019-01-26T15:45:13.401Z,99585.27
2019-01-26T15:47:41.771Z,99588.30
2019-01-26T15:50:13.195Z,99581.17
2019-01-26T15:52:41.863Z,99579.10
2019-01-26T15:55:15.527Z,99580.91
2019-01-26T15:57:43.927Z,99577.16
2019-01-26T16:00:15.495Z,99580.16
2019-01-26T16:02:43.785Z,99577.18
2019-01-26T16:05:12.474Z,99581.48
2019-01-26T16:07:41.064Z,99580.23
2019-01-26T16:10:18.115Z,99574.35
2019-01-26T16:12:46.490Z,99581.11
2019-01-26T16:15:23.459Z,99578.20
2019-01-26T16:17:52.238Z,99580.38
2019-01-26T16:20:21.271Z,99567.33
2019-01-26T16:22:49.575Z,99563.94
2019-01-26T16:25:17.880Z,99559.75
2019-01-26T16:27:46.161Z,99552.98
2019-01-26T16:30:17.345Z,99549.65
2019-01-26T16:32:45.674Z,99556.02
2019-01-26T16:35:15.598Z,99553.45
2019-01-26T16:37:44.104Z,99562.73
2019-01-26T16:40:15.945Z,99566.56
2019-01-26T16:42:44.262Z,99559.37
2019-01-26T16:45:15.858Z,99559.33
2019-01-26T16:47:44.176Z,99566.96
2019-01-26T16:50:18.152Z,99569.50
2019-01-26T16:52:46.446Z,99560.69
2019-01-26T16:55:15.864Z,99557.30
2019-01-26T16:57:44.298Z,99561.50
2019-01-26T17:00:21.591Z,99566.98
2019-01-26T17:02:49.875Z,99564.91
2019-01-26T17:05:18.182Z,99569.96
2019-01-26T17:07:46.584Z,99569.08
2019-01-26T17:10:19.996Z,99581.35
2019-01-26T17:12:48.287Z,99576.62
2019-01-26T17:15:16.655Z,99568.55
2019-01-26T17:17:45.004Z,99574.45
2019-01-26T17:20:22.352Z,99577.41
2019-01-26T17:22:50.727Z,99579.11
2019-01-26T17:25:19.007Z,99577.05
2019-01-26T17:27:47.397Z,99580.86
2019-01-26T17:30:18.516Z,99581.28
2019-01-26T17:32:46.832Z,99581.73
2019-01-26T17:35:15.155Z,99576.28
2019-01-26T17:37:43.454Z,99569.56
2019-01-26T17:40:17.908Z,99576.33
2019-01-26T17:42:46.248Z,99576.33
2019-01-26T17:45:16.194Z,99569.59
2019-01-26T17:47:44.567Z,99566.23
2019-01-26T17:50:15.679Z,99563.73
2019-01-26T17:52:43.967Z,99570.53
2019-01-26T17:55:12.388Z,99574.41
2019-01-26T17:57:40.944Z,99570.22
2019-01-26T18:00:12.630Z,99563.90
2019-01-26T18:02:40.946Z,99551.61
2019-01-26T18:05:11.073Z,99546.61
2019-01-26T18:07:39.439Z,99556.36
2019-01-26T18:10:11.002Z,99558.96
2019-01-26T18:12:39.320Z,99555.57
2019-01-26T18:15:10.971Z,99550.14
2019-01-26T18:17:39.266Z,99553.08
2019-01-26T18:20:10.883Z,99563.66
2019-01-26T18:22:39.245Z,99555.25
2019-01-26T18:25:08.969Z,99556.54
2019-01-26T18:27:38.861Z,99565.03
2019-01-26T18:30:10.767Z,99561.25
2019-01-26T18:32:39.130Z,99570.56
2019-01-26T18:35:10.708Z,99560.03
2019-01-26T18:37:39.178Z,99553.63
2019-01-26T18:40:16.674Z,99568.39
2019-01-26T18:42:44.969Z,99568.03
2019-01-26T18:45:18.884Z,99565.53
2019-01-26T18:47:47.216Z,99564.33
2019-01-26T18:50:20.789Z,99563.52
2019-01-26T18:52:49.208Z,99570.33
2019-01-26T18:55:17.543Z,99577.97
2019-01-26T18:57:46.197Z,99584.34
2019-01-26T19:00:17.703Z,99578.88
2019-01-26T19:02:47.787Z,99583.13
2019-01-26T19:05:19.119Z,99578.93
2019-01-26T19:07:47.421Z,99574.28
2019-01-26T19:10:15.747Z,99580.64
2019-01-26T19:12:44.041Z,99584.91
2019-01-26T19:15:18.570Z,99583.69
2019-01-26T19:17:46.893Z,99579.02
2019-01-26T19:20:15.929Z,99584.09
2019-01-26T19:22:44.228Z,99575.24
2019-01-26T19:25:14.988Z,99574.02
2019-01-26T19:27:43.343Z,99570.23
2019-01-26T19:30:14.827Z,99568.98
2019-01-26T19:32:43.161Z,99572.82
2019-01-26T19:35:11.834Z,99574.07
2019-01-26T19:37:40.111Z,99573.69
2019-01-26T19:40:18.810Z,99570.29
2019-01-26T19:42:47.159Z,99575.36
2019-01-26T19:45:17.997Z,99575.38
2019-01-26T19:47:46.410Z,99575.38
2019-01-26T19:50:17.335Z,99571.58
2019-01-26T19:52:45.696Z,99570.31
2019-01-26T19:55:15.146Z,99576.64
2019-01-26T19:57:43.518Z,99579.17
2019-01-26T20:00:11.869Z,99581.72
2019-01-26T20:02:40.191Z,99581.73
2019-01-26T20:05:11.882Z,99573.31
2019-01-26T20:07:40.181Z,99584.30
2019-01-26T20:10:10.232Z,99579.24
2019-01-26T20:12:38.744Z,99579.24
2019-01-26T20:15:12.936Z,99571.17
2019-01-26T20:17:41.251Z,99571.50
2019-01-26T20:20:15.826Z,99566.01
2019-01-26T20:22:44.115Z,99560.53
2019-01-26T20:25:12.454Z,99562.59
2019-01-26T20:27:40.925Z,99563.06
2019-01-26T20:30:18.407Z,99567.33
2019-01-26T20:32:46.702Z,99569.05
2019-01-26T20:35:14.994Z,99577.08
2019-01-26T20:37:43.437Z,99577.50
2019-01-26T20:40:14.576Z,99572.88
2019-01-26T20:42:42.875Z,99580.45
2019-01-26T20:45:14.452Z,99580.45
2019-01-26T20:47:42.804Z,99591.00
2019-01-26T20:50:13.338Z,99586.38
2019-01-26T20:52:42.994Z,99587.64
2019-01-26T20:55:12.826Z,99588.91
2019-01-26T20:57:41.105Z,99590.98
2019-01-26T21:00:18.269Z,99599.42
2019-01-26T21:02:46.557Z,99605.30
2019-01-26T21:05:14.839Z,99597.63
2019-01-26T21:07:43.217Z,99595.08
2019-01-26T21:10:19.610Z,99591.30
2019-01-26T21:12:48.883Z,99594.66
2019-01-26T21:15:17.278Z,99580.25
2019-01-26T21:17:45.579Z,99576.03
2019-01-26T21:20:17.161Z,99579.83
2019-01-26T21:22:45.455Z,99577.66
2019-01-26T21:25:14.281Z,99576.78
2019-01-26T21:27:42.636Z,99577.62
2019-01-26T21:30:17.638Z,99576.80
2019-01-26T21:32:47.892Z,99582.69
2019-01-26T21:35:16.163Z,99589.88
2019-01-26T21:37:44.451Z,99589.42
2019-01-26T21:40:18.721Z,99589.86
2019-01-26T21:42:46.995Z,99591.98
2019-01-26T21:45:16.320Z,99572.13
2019-01-26T21:47:44.638Z,99566.59
2019-01-26T21:50:19.015Z,99567.85
2019-01-26T21:52:47.304Z,99565.73
2019-01-26T21:55:15.641Z,99568.30
2019-01-26T21:57:43.938Z,99572.13
2019-01-26T22:00:23.629Z,99578.86
2019-01-26T22:02:51.917Z,99583.52
2019-01-26T22:05:20.185Z,99585.22
2019-01-26T22:07:48.505Z,99583.57
2019-01-26T22:10:21.976Z,99585.69
2019-01-26T22:12:50.248Z,99583.15
2019-01-26T22:15:20.530Z,99588.23
2019-01-26T22:17:48.895Z,99589.08
2019-01-26T22:20:19.330Z,99592.03
2019-01-26T22:22:48.730Z,99600.90
2019-01-26T22:25:16.988Z,99598.37
2019-01-26T22:27:45.318Z,99596.66
2019-01-26T22:30:16.764Z,99599.61
2019-01-26T22:32:45.320Z,99599.98
2019-01-26T22:35:13.602Z,99599.92
2019-01-26T22:37:41.928Z,99592.62
2019-01-26T22:40:13.610Z,99592.98
2019-01-26T22:42:41.999Z,99596.29
2019-01-26T22:45:11.987Z,99578.08
2019-01-26T22:47:40.339Z,99580.13
2019-01-26T22:50:11.871Z,99576.70
2019-01-26T22:52:40.185Z,99571.98
2019-01-26T22:55:11.213Z,99561.34
2019-01-26T22:57:39.496Z,99563.37
2019-01-26T23:00:38.642Z,99565.34
2019-01-26T23:03:09.774Z,99566.23
2019-01-26T23:05:57.570Z,99553.55
2019-01-26T23:08:29.108Z,99555.20
2019-01-26T23:11:06.002Z,99542.98
2019-01-26T23:13:35.546Z,99547.19
2019-01-26T23:16:15.966Z,99546.28
2019-01-26T23:19:05.543Z,99547.11
2019-01-26T23:21:53.497Z,99539.92
2019-01-26T23:24:59.656Z,99540.33
2019-01-26T23:27:37.258Z,99555.97
2019-01-26T23:30:21.180Z,99561.40
2019-01-26T23:32:49.584Z,99559.72
2019-01-26T23:35:17.863Z,99553.36
2019-01-26T23:37:46.154Z,99542.72
2019-01-26T23:40:14.476Z,99543.86
2019-01-26T23:42:42.797Z,99542.91
2019-01-26T23:45:11.102Z,99538.66
2019-01-26T23:47:39.418Z,99540.32
2019-01-26T23:50:08.994Z,99545.76
2019-01-26T23:52:37.273Z,99545.70
2019-01-26T23:55:08.038Z,99544.10
2019-01-26T23:57:36.343Z,99545.86
